TFM - Tactical Decision Aid
ID: Runway Winds: CIG/VIS Threshold:

KLAX - Los Angeles Intl, CA, US

Updated at: 2036 UTC 17 Jun 2019
Latest TAF at: 1739 UTC 17 Jun 2019

TAF Board

Time1953Z 17/21Z 17/22Z 17/23Z 18/00Z 18/01Z 18/02Z 18/03Z 18/04Z 18/05Z 18/06Z 18/07Z 18/08Z 18/09Z>>
Type OBS PRVL PRVL PRVL PRVL PRVL PRVL PRVL PRVL PRVL PRVL PRVL PRVL PRVL
VIS 9 >6 >6 >6 >6 >6 >6 >6 >6 >6 >6 >6 >6 >6
CIG 23 22 22 22 22 22 22 18 18 18 18 18 10 10
Cover OVC BKN BKN BKN BKN BKN BKN OVC OVC OVC OVC OVC OVC OVC
FltCat MVFR MVFR MVFR MVFR MVFR MVFR MVFR MVFR MVFR MVFR MVFR MVFR MVFR MVFR
WX -- -- -- -- -- -- -- -- -- -- -- -- -- --
WDir 250 260 260 260 260 260 260 260 260 260 260 260 VRB VRB
WSpd 8 10 10 10 10 10 10 8 8 8 8 8 3 3
WGst -- -- -- -- -- -- -- -- -- -- -- -- -- --

TDA Impact Legend

  None Marginal Slight Moderate High
Visibility (sm) >5 3≤X≤5 1≤X<3 0.5≤X<1 <0.5
Ceiling (100 ft) >30 10≤X≤30 4≤X<10 2≤X<4 <2
Wind Speed (kt) <15 15≤X<25 25≤X<30 ≥30
Wind Gust (kt) <15 15≤X<25 25≤X<35 ≥35
Weather No Wx Reported VCTS -TS,-FZRA TS,FZRA +TS,+FZRA
TAF
KLAX 171739Z 1718/1824 25006KT P6SM SCT013 OVC019
  FM172000 26010KT P6SM BKN022
  FM180300 26008KT P6SM OVC018
  FM180800 VRB03KT P6SM OVC010
  FM181700 23006KT P6SM OVC018
  FM182100 26010KT P6SM BKN022


METAR
KLAX 171953Z 25008KT 9SM FEW015 OVC023 19/14 A2992 RMK AO2 SLP129 T01940139
KLAX 171853Z 28006KT 9SM SCT014 OVC020 19/14 A2992 RMK AO2 SLP129 T01890139
KLAX 171753Z 27006KT 9SM SCT012 OVC018 18/14 A2991 RMK AO2 SLP128 T01830144 10189 20167 51009

Radar Display
Forecast Discussion